createdAt,value
2018-12-01T00:00:27.653Z,36.83
2018-12-01T00:02:56.621Z,37.73
2018-12-01T00:05:25.629Z,31.10
2018-12-01T00:07:53.903Z,32.50
2018-12-01T00:10:22.116Z,32.63
2018-12-01T00:12:50.542Z,32.97
2018-12-01T00:15:19.834Z,33.40
2018-12-01T00:17:47.851Z,40.20
2018-12-01T00:20:16.923Z,34.57
2018-12-01T00:22:45.591Z,31.67
2018-12-01T00:25:13.312Z,34.93
2018-12-01T00:27:41.919Z,39.13
2018-12-01T00:30:15.703Z,36.63
2018-12-01T00:32:45.497Z,35.97
2018-12-01T00:35:13.346Z,36.83
2018-12-01T00:37:41.986Z,58.50
2018-12-01T00:40:11.158Z,77.27
2018-12-01T00:42:39.679Z,53.93
2018-12-01T00:45:09.231Z,46.70
2018-12-01T00:47:36.827Z,50.33
2018-12-01T00:51:34.985Z,49.00
2018-12-01T00:54:04.762Z,59.80
2018-12-01T00:56:33.316Z,51.13
2018-12-01T00:59:02.377Z,103.50
2018-12-01T01:01:30.862Z,53.60
2018-12-01T01:03:58.634Z,47.83
2018-12-01T01:06:26.997Z,54.20
2018-12-01T01:08:55.684Z,73.90
2018-12-01T01:11:24.257Z,71.13
2018-12-01T01:13:52.875Z,55.17
2018-12-01T01:16:20.707Z,60.20
2018-12-01T01:18:48.313Z,93.87
2018-12-01T01:21:16.713Z,80.03
2018-12-01T01:23:44.680Z,54.60
2018-12-01T01:26:13.131Z,126.33
2018-12-01T01:28:41.004Z,77.23
2018-12-01T01:31:09.567Z,74.00
2018-12-01T01:33:37.478Z,73.00
2018-12-01T01:36:06.230Z,56.40
2018-12-01T01:38:34.668Z,57.50
2018-12-01T01:41:08.077Z,120.70
2018-12-01T01:43:37.149Z,62.27
2018-12-01T01:46:05.011Z,179.20
2018-12-01T01:48:33.469Z,54.00
2018-12-01T01:51:01.702Z,53.37
2018-12-01T01:53:29.628Z,47.57
2018-12-01T01:55:59.027Z,41.40
2018-12-01T01:58:27.323Z,65.00
2018-12-01T02:00:56.363Z,127.93
2018-12-01T02:03:24.592Z,43.97
2018-12-01T02:05:52.437Z,38.03
2018-12-01T02:08:21.107Z,33.20
2018-12-01T02:10:50.321Z,28.50
2018-12-01T02:13:18.399Z,34.73
2018-12-01T02:15:46.145Z,32.17
2018-12-01T02:18:14.055Z,33.87
2018-12-01T02:20:41.899Z,31.33
2018-12-01T02:23:10.039Z,33.10
2018-12-01T02:25:37.877Z,38.10
2018-12-01T02:28:06.907Z,31.87
2018-12-01T02:30:35.897Z,33.60
2018-12-01T02:33:05.167Z,32.77
2018-12-01T02:35:33.523Z,29.63
2018-12-01T02:38:03.058Z,35.57
2018-12-01T02:40:32.095Z,41.07
2018-12-01T02:42:59.918Z,34.87
2018-12-01T02:45:39.588Z,40.07
2018-12-01T02:48:07.951Z,29.03
2018-12-01T02:50:37.982Z,31.87
2018-12-01T02:53:06.457Z,21.90
2018-12-01T02:55:34.336Z,22.20
2018-12-01T02:58:02.258Z,32.70
2018-12-01T03:00:30.284Z,23.07
2018-12-01T03:02:59.430Z,24.73
2018-12-01T03:05:27.154Z,24.37
2018-12-01T03:07:54.894Z,19.27
2018-12-01T03:10:22.747Z,26.40
2018-12-01T03:12:51.920Z,23.27
2018-12-01T03:15:20.826Z,20.47
2018-12-01T03:17:49.769Z,27.23
2018-12-01T03:20:18.059Z,25.07
2018-12-01T03:22:48.215Z,23.70
2018-12-01T03:25:17.495Z,24.83
2018-12-01T03:27:46.208Z,21.73
2018-12-01T03:30:18.132Z,15.93
2018-12-01T03:32:46.777Z,27.60
2018-12-01T03:35:14.860Z,16.50
2018-12-01T03:37:45.571Z,27.00
2018-12-01T03:40:13.835Z,17.97
2018-12-01T03:42:41.722Z,17.03
2018-12-01T03:45:12.723Z,15.23
2018-12-01T03:47:41.202Z,25.47
2018-12-01T03:50:11.367Z,19.87
2018-12-01T03:52:39.276Z,20.03
2018-12-01T03:55:45.807Z,32.13
2018-12-01T03:58:14.292Z,23.47
2018-12-01T04:00:41.791Z,18.07
2018-12-01T04:03:09.678Z,21.93
2018-12-01T04:05:37.767Z,21.67
2018-12-01T04:08:08.203Z,23.10
2018-12-01T04:10:35.767Z,24.30
2018-12-01T04:13:04.209Z,22.50
2018-12-01T04:15:33.365Z,29.20
2018-12-01T04:18:01.383Z,22.13
2018-12-01T04:20:29.111Z,29.93
2018-12-01T04:22:57.374Z,20.20
2018-12-01T04:25:26.588Z,29.80
2018-12-01T04:27:54.596Z,18.33
2018-12-01T04:30:23.935Z,26.37
2018-12-01T04:32:52.919Z,33.97
2018-12-01T04:35:21.404Z,27.03
2018-12-01T04:37:50.629Z,25.70
2018-12-01T04:40:19.552Z,33.40
2018-12-01T04:42:48.801Z,23.33
2018-12-01T04:45:17.566Z,19.57
2018-12-01T04:47:45.647Z,22.63
2018-12-01T04:50:15.562Z,16.87
2018-12-01T04:52:44.786Z,24.30
2018-12-01T04:55:13.181Z,17.80
2018-12-01T04:57:41.337Z,18.80
2018-12-01T05:00:14.594Z,16.83
2018-12-01T05:02:43.400Z,23.57
2018-12-01T05:05:12.513Z,14.50
2018-12-01T05:07:40.863Z,16.00
2018-12-01T05:10:09.902Z,18.77
2018-12-01T05:12:38.308Z,14.00
2018-12-01T05:15:08.975Z,19.30
2018-12-01T05:17:36.601Z,16.17
2018-12-01T05:21:30.830Z,19.20
2018-12-01T05:23:58.583Z,15.83
2018-12-01T05:26:26.233Z,21.83
2018-12-01T05:28:53.886Z,19.70
2018-12-01T05:36:10.820Z,18.00
2018-12-01T05:38:38.627Z,21.57
2018-12-01T05:41:06.779Z,21.47
2018-12-01T05:43:35.603Z,23.90
2018-12-01T05:46:03.378Z,25.10
2018-12-01T05:48:31.142Z,19.80
2018-12-01T05:50:58.819Z,20.70
2018-12-01T05:53:26.554Z,24.00
2018-12-01T05:55:54.250Z,31.23
2018-12-01T05:58:23.983Z,21.03
2018-12-01T06:00:52.641Z,23.80
2018-12-01T06:03:20.404Z,25.30
2018-12-01T06:05:47.993Z,27.23
2018-12-01T06:08:16.353Z,29.53
2018-12-01T06:10:44.555Z,30.80
2018-12-01T06:13:14.027Z,24.70
2018-12-01T06:15:42.136Z,29.97
2018-12-01T06:18:10.901Z,31.00
2018-12-01T06:20:38.761Z,20.00
2018-12-01T06:23:06.810Z,34.77
2018-12-01T06:25:35.210Z,30.53
2018-12-01T06:28:03.588Z,20.60
2018-12-01T06:30:31.494Z,29.77
2018-12-01T06:32:59.370Z,31.60
2018-12-01T06:35:26.918Z,28.83
2018-12-01T06:37:54.439Z,30.87
2018-12-01T06:40:23.813Z,31.77
2018-12-01T06:42:51.469Z,29.07
2018-12-01T06:45:19.240Z,33.00
2018-12-01T06:47:47.545Z,35.50
2018-12-01T06:50:16.894Z,41.70
2018-12-01T06:52:45.268Z,34.40
2018-12-01T06:55:14.240Z,40.80
2018-12-01T06:57:43.997Z,36.87
2018-12-01T07:00:13.186Z,39.77
2018-12-01T07:02:41.822Z,38.03
2018-12-01T07:05:10.711Z,27.60
2018-12-01T07:07:38.271Z,29.43
2018-12-01T07:10:09.021Z,30.93
2018-12-01T07:12:36.553Z,25.53
2018-12-01T07:15:05.759Z,23.60
2018-12-01T07:17:34.149Z,27.10
2018-12-01T07:20:02.905Z,22.30
2018-12-01T07:22:31.586Z,49.73
2018-12-01T07:24:59.292Z,22.37
2018-12-01T07:27:26.859Z,21.90
2018-12-01T07:29:58.059Z,23.27
2018-12-01T07:32:22.992Z,25.70
2018-12-01T07:34:51.215Z,27.37
2018-12-01T07:37:19.842Z,30.63
2018-12-01T07:39:49.153Z,26.37
2018-12-01T07:42:18.090Z,29.23
2018-12-01T07:44:47.072Z,25.60
2018-12-01T07:47:14.569Z,24.23
2018-12-01T07:49:42.407Z,29.93
2018-12-01T07:52:09.965Z,25.43
2018-12-01T07:54:39.142Z,33.23
2018-12-01T07:57:06.724Z,28.27
2018-12-01T07:59:36.034Z,26.00
2018-12-01T08:02:07.478Z,28.67
2018-12-01T08:04:35.888Z,33.03
2018-12-01T08:07:05.795Z,29.40
2018-12-01T08:09:34.939Z,38.23
2018-12-01T08:12:04.068Z,29.57
2018-12-01T08:14:32.457Z,26.63
2018-12-01T08:17:00.037Z,32.50
2018-12-01T08:19:27.600Z,26.17
2018-12-01T08:21:55.063Z,26.30
2018-12-01T08:24:22.614Z,27.53
2018-12-01T08:26:50.151Z,31.13
2018-12-01T08:29:18.516Z,31.33
2018-12-01T08:31:46.171Z,25.90
2018-12-01T08:34:13.715Z,29.20
2018-12-01T08:36:41.265Z,26.73
2018-12-01T08:39:09.035Z,29.10
2018-12-01T08:41:37.404Z,23.70
2018-12-01T08:44:05.034Z,34.23
2018-12-01T08:46:32.604Z,37.30
2018-12-01T08:49:00.067Z,34.73
2018-12-01T08:51:27.642Z,22.23
2018-12-01T08:53:55.187Z,40.10
2018-12-01T08:56:22.678Z,29.53
2018-12-01T08:58:50.219Z,29.23
2018-12-01T09:01:17.627Z,28.80
2018-12-01T09:03:46.136Z,31.73
2018-12-01T09:06:13.686Z,31.83
2018-12-01T09:08:41.146Z,27.83
2018-12-01T09:11:09.322Z,27.10
2018-12-01T09:13:36.926Z,28.70
2018-12-01T09:16:05.838Z,29.53
2018-12-01T09:18:34.196Z,30.67
2018-12-01T09:21:01.708Z,34.57
2018-12-01T09:23:29.215Z,33.67
2018-12-01T09:25:56.833Z,39.57
2018-12-01T09:28:24.401Z,38.67
2018-12-01T09:30:54.299Z,30.13
2018-12-01T09:33:22.614Z,31.60
2018-12-01T09:35:50.227Z,31.00
2018-12-01T09:38:18.017Z,27.90
2018-12-01T09:40:45.559Z,31.13
2018-12-01T09:43:13.148Z,32.03
2018-12-01T09:45:40.964Z,45.30
2018-12-01T09:48:08.610Z,37.80
2018-12-01T09:50:36.017Z,41.67
2018-12-01T09:53:04.062Z,36.60
2018-12-01T09:55:31.478Z,36.43
2018-12-01T09:57:59.588Z,36.97
2018-12-01T10:00:29.364Z,28.30
2018-12-01T10:02:57.819Z,33.20
2018-12-01T10:05:25.651Z,28.13
2018-12-01T10:07:53.220Z,31.33
2018-12-01T10:10:21.819Z,33.07
2018-12-01T10:12:51.704Z,27.60
2018-12-01T10:15:20.501Z,32.07
2018-12-01T10:17:47.981Z,29.83
2018-12-01T10:20:17.002Z,32.33
2018-12-01T10:22:45.933Z,34.33
2018-12-01T10:25:14.750Z,24.27
2018-12-01T10:27:42.277Z,33.60
2018-12-01T10:30:14.195Z,26.33
2018-12-01T10:32:41.818Z,30.97
2018-12-01T10:35:11.563Z,28.40
2018-12-01T10:37:39.678Z,30.30
2018-12-01T10:40:09.002Z,35.73
2018-12-01T10:42:36.758Z,29.77
2018-12-01T10:45:15.740Z,28.43
2018-12-01T10:47:43.922Z,29.17
2018-12-01T10:50:13.692Z,34.43
2018-12-01T10:52:41.166Z,30.00
2018-12-01T10:55:15.568Z,34.87
2018-12-01T10:57:43.116Z,30.43
2018-12-01T11:00:17.245Z,32.93
2018-12-01T11:02:55.473Z,26.20
2018-12-01T11:05:17.971Z,28.50
2018-12-01T11:07:45.513Z,21.90
2018-12-01T11:10:13.063Z,24.70
2018-12-01T11:12:40.609Z,22.27
2018-12-01T11:15:08.972Z,24.90
2018-12-01T11:17:36.451Z,25.77
2018-12-01T11:20:06.939Z,30.13
2018-12-01T11:22:34.584Z,25.33
2018-12-01T11:25:02.219Z,24.27
2018-12-01T11:27:29.903Z,27.73
2018-12-01T11:29:57.473Z,30.13
2018-12-01T11:32:25.676Z,29.10
2018-12-01T11:34:53.288Z,29.93
2018-12-01T11:37:20.818Z,36.70
2018-12-01T11:39:48.872Z,30.00
2018-12-01T11:42:16.535Z,28.93
2018-12-01T11:45:47.875Z,27.50
2018-12-01T11:48:15.515Z,28.60
2018-12-01T11:50:42.995Z,34.80
2018-12-01T11:53:10.588Z,26.50
2018-12-01T11:55:38.168Z,27.00
2018-12-01T11:58:05.759Z,21.70
2018-12-01T12:00:33.375Z,31.13
2018-12-01T12:03:02.634Z,29.50
2018-12-01T12:05:30.217Z,22.70
2018-12-01T12:08:19.817Z,22.63
2018-12-01T12:10:47.396Z,30.17
2018-12-01T12:13:15.133Z,25.73
2018-12-01T12:15:42.930Z,24.90
2018-12-01T12:18:10.800Z,30.13
2018-12-01T12:20:39.243Z,25.20
2018-12-01T12:23:07.199Z,30.50
2018-12-01T12:25:34.921Z,25.43
2018-12-01T12:28:02.603Z,27.13
2018-12-01T12:30:30.194Z,37.10
2018-12-01T12:32:57.784Z,33.10
2018-12-01T12:35:25.332Z,33.67
2018-12-01T12:37:52.854Z,31.47
2018-12-01T12:40:21.859Z,21.77
2018-12-01T12:42:49.642Z,30.90
2018-12-01T12:45:17.939Z,25.40
2018-12-01T12:47:45.633Z,47.53
2018-12-01T12:50:15.220Z,25.93
2018-12-01T12:52:43.606Z,18.80
2018-12-01T12:55:12.883Z,24.20
2018-12-01T12:57:40.410Z,21.93
2018-12-01T13:00:09.836Z,23.40
2018-12-01T13:02:37.438Z,22.07
2018-12-01T13:05:07.953Z,27.40
2018-12-01T13:07:35.462Z,26.43
2018-12-01T13:10:03.468Z,25.00
2018-12-01T13:12:31.011Z,31.37
2018-12-01T13:14:58.563Z,22.63
2018-12-01T13:17:26.055Z,30.10
2018-12-01T13:19:53.629Z,20.23
2018-12-01T13:22:21.118Z,24.20
2018-12-01T13:24:48.735Z,32.30
2018-12-01T13:27:16.509Z,20.37
2018-12-01T13:29:45.075Z,31.60
2018-12-01T13:32:12.631Z,25.30
2018-12-01T13:34:40.320Z,27.20
2018-12-01T13:37:07.850Z,21.47
2018-12-01T13:39:36.173Z,19.83
2018-12-01T13:42:03.693Z,22.27
2018-12-01T13:44:31.533Z,18.67
2018-12-01T13:46:59.062Z,19.40
2018-12-01T13:49:26.692Z,22.87
2018-12-01T13:52:00.647Z,23.43
2018-12-01T13:54:32.561Z,22.33
2018-12-01T13:57:01.279Z,24.00
2018-12-01T13:59:30.882Z,19.70
2018-12-01T14:01:59.136Z,16.83
2018-12-01T14:04:27.162Z,25.83
2018-12-01T14:06:54.830Z,20.27
2018-12-01T14:09:23.351Z,18.97
2018-12-01T14:11:51.199Z,22.07
2018-12-01T14:14:19.468Z,23.10
2018-12-01T14:16:47.220Z,18.27
2018-12-01T14:19:15.111Z,23.50
2018-12-01T14:21:43.072Z,22.67
2018-12-01T14:24:11.104Z,22.80
2018-12-01T14:26:39.063Z,21.50
2018-12-01T14:29:07.323Z,21.13
2018-12-01T14:31:35.433Z,17.50
2018-12-01T14:34:03.408Z,19.50
2018-12-01T14:36:31.309Z,23.30
2018-12-01T14:38:59.076Z,17.60
2018-12-01T14:41:27.843Z,25.40
2018-12-01T14:43:56.207Z,18.87
2018-12-01T14:46:24.278Z,19.13
2018-12-01T14:48:52.019Z,17.17
2018-12-01T14:51:20.752Z,17.30
2018-12-01T14:53:50.318Z,22.90
2018-12-01T14:56:18.143Z,20.50
2018-12-01T14:58:45.868Z,20.17
2018-12-01T15:01:14.679Z,17.00
2018-12-01T15:03:43.586Z,16.13
2018-12-01T15:06:11.999Z,14.73
2018-12-01T15:08:40.560Z,15.20
2018-12-01T15:11:08.184Z,13.70
2018-12-01T15:13:35.886Z,17.40
2018-12-01T15:16:03.508Z,12.63
2018-12-01T15:18:31.030Z,13.03
2018-12-01T15:20:59.830Z,13.40
2018-12-01T15:23:27.486Z,13.83
2018-12-01T15:25:55.160Z,15.87
2018-12-01T15:28:23.096Z,13.57
2018-12-01T15:30:50.759Z,10.03
2018-12-01T15:33:18.510Z,16.57
2018-12-01T15:35:46.563Z,12.63
2018-12-01T15:38:14.460Z,11.97
2018-12-01T15:40:47.380Z,15.50
2018-12-01T15:43:15.303Z,15.80
2018-12-01T15:45:42.789Z,18.93
2018-12-01T15:48:10.600Z,12.80
2018-12-01T15:50:39.332Z,15.23
2018-12-01T15:53:10.272Z,15.67
2018-12-01T15:55:37.910Z,12.67
2018-12-01T15:58:06.002Z,10.43
2018-12-01T16:00:33.811Z,9.67
2018-12-01T16:03:01.401Z,8.17
2018-12-01T16:05:29.032Z,9.10
2018-12-01T16:07:57.639Z,9.47
2018-12-01T16:10:25.425Z,10.07
2018-12-01T16:12:58.671Z,10.70
2018-12-01T16:15:32.590Z,17.93
2018-12-01T16:18:00.220Z,9.60
2018-12-01T16:20:28.665Z,13.77
2018-12-01T16:22:58.633Z,12.63
2018-12-01T16:25:26.819Z,12.70
2018-12-01T16:27:54.588Z,22.40
2018-12-01T16:30:25.670Z,12.00
2018-12-01T16:32:54.820Z,19.60
2018-12-01T16:35:22.943Z,16.10
2018-12-01T16:37:50.580Z,17.37
2018-12-01T16:40:20.361Z,9.10
2018-12-01T16:42:49.542Z,12.83
2018-12-01T16:45:17.251Z,10.53
2018-12-01T16:47:44.972Z,17.47
2018-12-01T16:50:13.045Z,17.20
2018-12-01T16:52:40.807Z,16.10
2018-12-01T16:55:11.108Z,17.33
2018-12-01T16:57:38.741Z,20.73
2018-12-01T17:00:12.899Z,16.03
2018-12-01T17:02:40.372Z,24.23
2018-12-01T17:05:09.455Z,18.27
2018-12-01T17:07:37.143Z,16.60
2018-12-01T17:10:09.311Z,16.20
2018-12-01T17:12:37.254Z,17.20
2018-12-01T17:15:07.589Z,22.90
2018-12-01T17:17:35.377Z,17.90
2018-12-01T17:20:03.585Z,17.60
2018-12-01T17:22:32.440Z,14.80
2018-12-01T17:25:01.121Z,15.43
2018-12-01T17:27:29.621Z,18.93
2018-12-01T17:29:57.160Z,12.80
2018-12-01T17:32:24.715Z,17.20
2018-12-01T17:34:52.207Z,16.77
2018-12-01T17:37:20.084Z,15.80
2018-12-01T17:39:47.855Z,15.67
2018-12-01T17:42:15.480Z,12.37
2018-12-01T17:44:44.518Z,13.53
2018-12-01T17:47:12.151Z,16.37
2018-12-01T17:49:39.742Z,12.20
2018-12-01T17:52:07.410Z,11.63
2018-12-01T17:54:35.152Z,11.30
2018-12-01T17:57:02.828Z,12.73
2018-12-01T17:59:30.477Z,13.33
2018-12-01T18:01:58.173Z,11.50
2018-12-01T18:04:25.651Z,7.73
2018-12-01T18:06:53.260Z,12.90
2018-12-01T18:09:21.560Z,9.33
2018-12-01T18:11:49.223Z,21.40
2018-12-01T18:14:16.847Z,13.60
2018-12-01T18:16:44.559Z,10.63
2018-12-01T18:19:12.073Z,10.00
2018-12-01T18:21:39.733Z,12.60
2018-12-01T18:24:07.965Z,12.57
2018-12-01T18:26:35.687Z,9.90
2018-12-01T18:29:03.453Z,12.00
2018-12-01T18:31:31.032Z,14.13
2018-12-01T18:34:10.078Z,12.33
2018-12-01T18:36:37.736Z,10.13
2018-12-01T18:39:09.235Z,14.13
2018-12-01T18:41:36.840Z,11.43
2018-12-01T18:44:04.618Z,13.40
2018-12-01T18:46:32.174Z,11.00
2018-12-01T18:48:59.742Z,12.50
2018-12-01T18:51:27.417Z,12.80
2018-12-01T18:53:55.510Z,12.43
2018-12-01T18:56:23.691Z,13.33
2018-12-01T18:58:51.286Z,17.93
2018-12-01T19:01:18.955Z,16.90
2018-12-01T19:03:47.508Z,14.83
2018-12-01T19:06:15.275Z,16.53
2018-12-01T19:08:42.887Z,17.90
2018-12-01T19:11:10.523Z,15.63
2018-12-01T19:13:38.802Z,13.30
2018-12-01T19:16:06.847Z,17.00
2018-12-01T19:18:35.038Z,14.23
2018-12-01T19:21:02.603Z,9.63
2018-12-01T19:23:30.093Z,18.43
2018-12-01T19:25:57.753Z,16.90
2018-12-01T19:28:25.401Z,21.40
2018-12-01T19:30:53.361Z,15.40
2018-12-01T19:33:23.140Z,12.70
2018-12-01T19:35:52.015Z,11.07
2018-12-01T19:38:24.337Z,11.97
2018-12-01T19:40:51.994Z,12.90
2018-12-01T19:43:20.323Z,17.63
2018-12-01T19:45:48.452Z,19.37
2018-12-01T19:48:16.064Z,10.53
2018-12-01T19:50:43.752Z,12.07
2018-12-01T19:53:12.733Z,11.43
2018-12-01T19:55:40.584Z,13.70
2018-12-01T19:58:13.707Z,18.10
2018-12-01T20:00:42.630Z,10.40
2018-12-01T20:03:14.533Z,12.40
2018-12-01T20:05:42.121Z,11.50
2018-12-01T20:08:11.021Z,13.40
2018-12-01T20:10:44.370Z,13.27
2018-12-01T20:13:25.531Z,12.07
2018-12-01T20:15:57.683Z,14.10
2018-12-01T20:18:26.628Z,11.40
2018-12-01T20:20:54.371Z,12.70
2018-12-01T20:23:21.961Z,12.07
2018-12-01T20:25:50.638Z,9.07
2018-12-01T20:28:18.174Z,10.80
2018-12-01T20:30:46.914Z,12.37
2018-12-01T20:33:14.892Z,14.13
2018-12-01T20:35:52.410Z,15.03
2018-12-01T20:39:25.221Z,12.50
2018-12-01T20:41:52.903Z,19.27
2018-12-01T20:44:21.661Z,18.97
2018-12-01T20:46:49.861Z,13.77
2018-12-01T20:49:20.283Z,13.07
2018-12-01T20:51:48.671Z,14.50
2018-12-01T20:54:27.926Z,13.37
2018-12-01T20:57:00.613Z,12.93
2018-12-01T20:59:28.231Z,15.40
2018-12-01T21:01:56.564Z,15.77
2018-12-01T21:04:24.125Z,14.73
2018-12-01T21:06:51.686Z,15.00
2018-12-01T21:09:19.256Z,15.90
2018-12-01T21:11:47.377Z,13.20
2018-12-01T21:14:16.180Z,11.77
2018-12-01T21:16:45.761Z,22.57
2018-12-01T21:19:13.508Z,11.70
2018-12-01T21:21:41.333Z,14.40
2018-12-01T21:24:08.910Z,18.50
2018-12-01T21:26:37.074Z,14.80
2018-12-01T21:29:06.038Z,16.53
2018-12-01T21:31:33.994Z,18.03
2018-12-01T21:34:02.110Z,19.37
2018-12-01T21:36:31.321Z,14.53
2018-12-01T21:38:58.936Z,17.37
2018-12-01T21:41:27.082Z,15.23
2018-12-01T21:43:54.741Z,19.27
2018-12-01T21:46:22.391Z,16.70
2018-12-01T21:48:52.431Z,17.00
2018-12-01T21:51:20.058Z,13.87
2018-12-01T21:53:47.566Z,12.80
2018-12-01T21:56:15.850Z,14.30
2018-12-01T21:58:44.030Z,19.10
2018-12-01T22:01:11.680Z,16.10
2018-12-01T22:03:39.860Z,22.00
2018-12-01T22:06:08.430Z,15.13
2018-12-01T22:08:36.997Z,14.30
2018-12-01T22:11:05.308Z,17.10
2018-12-01T22:13:32.936Z,11.47
2018-12-01T22:16:00.539Z,16.33
2018-12-01T22:18:28.104Z,14.90
2018-12-01T22:20:55.545Z,14.20
2018-12-01T22:23:23.178Z,17.93
2018-12-01T22:25:50.920Z,13.53
2018-12-01T22:28:18.543Z,12.83
2018-12-01T22:30:48.906Z,16.70
2018-12-01T22:33:17.181Z,22.40
2018-12-01T22:35:46.495Z,13.90
2018-12-01T22:38:14.076Z,10.70
2018-12-01T22:40:42.527Z,13.60
2018-12-01T22:43:10.261Z,11.27
2018-12-01T22:45:38.512Z,12.00
2018-12-01T22:48:12.611Z,14.67
2018-12-01T22:50:42.016Z,13.60
2018-12-01T22:53:09.699Z,10.27
2018-12-01T22:55:38.440Z,10.60
2018-12-01T22:58:08.459Z,14.73
2018-12-01T23:00:40.359Z,10.47
2018-12-01T23:03:08.649Z,11.50
2018-12-01T23:05:36.320Z,13.47
2018-12-01T23:08:04.809Z,13.10
2018-12-01T23:10:32.468Z,13.10
2018-12-01T23:13:00.064Z,12.67
2018-12-01T23:15:32.427Z,9.70
2018-12-01T23:17:55.200Z,12.50
2018-12-01T23:20:22.953Z,12.83
2018-12-01T23:22:51.378Z,8.97
2018-12-01T23:25:18.929Z,12.23
2018-12-01T23:27:47.011Z,9.60
2018-12-01T23:30:15.860Z,7.37
2018-12-01T23:32:44.835Z,12.40
2018-12-01T23:35:12.413Z,11.37
2018-12-01T23:37:40.062Z,9.10
2018-12-01T23:40:10.064Z,7.60
2018-12-01T23:42:37.694Z,5.33
2018-12-01T23:45:09.355Z,11.20
2018-12-01T23:47:36.991Z,12.70
2018-12-01T23:50:09.956Z,11.33
2018-12-01T23:52:37.522Z,7.97
2018-12-01T23:55:07.181Z,6.40
2018-12-01T23:57:35.691Z,8.63
